createdAt,value
2023-02-12T00:02:12.873Z,33.75
2023-02-12T00:04:39.303Z,29.65
2023-02-12T00:07:05.875Z,29.70
2023-02-12T00:09:32.418Z,28.92
2023-02-12T00:11:58.876Z,35.17
2023-02-12T00:14:25.419Z,26.55
2023-02-12T00:16:51.967Z,28.88
2023-02-12T00:19:18.426Z,32.95
2023-02-12T00:21:44.904Z,31.80
2023-02-12T00:24:13.860Z,34.78
2023-02-12T00:26:40.346Z,29.17
2023-02-12T00:29:06.817Z,30.92
2023-02-12T00:31:33.451Z,32.22
2023-02-12T00:34:02.721Z,33.88
2023-02-12T00:36:31.809Z,34.67
2023-02-12T00:38:59.010Z,32.55
2023-02-12T00:41:26.235Z,34.90
2023-02-12T00:43:52.724Z,34.58
2023-02-12T00:46:19.429Z,37.00
2023-02-12T00:48:46.022Z,38.72
2023-02-12T00:51:12.906Z,38.85
2023-02-12T00:53:39.662Z,39.60
2023-02-12T00:56:06.419Z,36.05
2023-02-12T00:58:33.248Z,39.88
2023-02-12T01:00:59.806Z,39.10
2023-02-12T01:03:26.436Z,44.17
2023-02-12T01:05:53.703Z,39.15
2023-02-12T01:08:20.540Z,41.80
2023-02-12T01:10:56.716Z,40.40
2023-02-12T01:13:25.532Z,43.80
2023-02-12T01:16:14.117Z,43.72
2023-02-12T01:18:40.997Z,49.55
2023-02-12T01:21:19.577Z,45.53
2023-02-12T01:23:47.433Z,44.97
2023-02-12T01:26:15.007Z,46.15
2023-02-12T01:28:43.244Z,47.75
2023-02-12T01:31:11.711Z,44.63
2023-02-12T01:33:38.407Z,44.17
2023-02-12T01:36:05.187Z,47.13
2023-02-12T01:38:31.637Z,41.75
2023-02-12T01:41:21.528Z,46.42
2023-02-12T01:44:17.366Z,43.20
2023-02-12T01:46:48.211Z,42.58
2023-02-12T01:49:21.420Z,46.50
2023-02-12T01:51:52.304Z,46.75
2023-02-12T01:54:22.687Z,46.47
2023-02-12T01:56:49.406Z,44.22
2023-02-12T01:59:16.982Z,46.42
2023-02-12T02:01:43.452Z,44.22
2023-02-12T02:04:19.667Z,45.03
2023-02-12T02:06:56.300Z,48.28
2023-02-12T02:09:25.602Z,47.10
2023-02-12T02:12:10.701Z,53.15
2023-02-12T02:14:39.752Z,48.22
2023-02-12T02:17:19.704Z,48.35
2023-02-12T02:20:05.011Z,44.70
2023-02-12T02:22:42.414Z,46.00
2023-02-12T02:25:24.415Z,48.38
2023-02-12T02:28:09.875Z,50.42
2023-02-12T02:30:45.363Z,45.15
2023-02-12T02:33:44.013Z,46.67
2023-02-12T02:36:15.396Z,43.42
2023-02-12T02:38:45.947Z,47.83
2023-02-12T02:41:27.650Z,48.72
2023-02-12T02:43:58.069Z,47.28
2023-02-12T02:46:52.291Z,48.78
2023-02-12T02:52:02.079Z,52.55
2023-02-12T02:54:36.052Z,48.08
2023-02-12T02:57:11.953Z,53.13
2023-02-12T02:59:46.485Z,51.60
2023-02-12T03:02:36.256Z,50.42
2023-02-12T03:05:15.939Z,51.13
2023-02-12T03:07:52.354Z,49.38
2023-02-12T03:10:24.267Z,55.67
2023-02-12T03:13:00.016Z,54.78
2023-02-12T03:15:36.574Z,56.30
2023-02-12T03:18:09.882Z,50.15
2023-02-12T03:20:43.501Z,54.78
2023-02-12T03:25:58.771Z,49.00
2023-02-12T03:28:38.503Z,49.92
2023-02-12T03:31:22.358Z,51.17
2023-02-12T03:34:11.497Z,51.78
2023-02-12T03:36:41.061Z,55.50
2023-02-12T03:39:30.317Z,55.83
2023-02-12T03:42:13.027Z,53.38
2023-02-12T03:44:52.878Z,53.10
2023-02-12T03:47:49.671Z,57.67
2023-02-12T03:50:41.050Z,53.50
2023-02-12T03:53:07.810Z,53.92
2023-02-12T03:55:39.496Z,58.20
2023-02-12T03:58:09.450Z,60.10
2023-02-12T04:00:38.555Z,50.67
2023-02-12T04:03:06.473Z,52.60
2023-02-12T04:05:35.513Z,57.65
2023-02-12T04:08:09.562Z,53.80
2023-02-12T04:11:07.636Z,54.15
2023-02-12T04:13:50.740Z,54.80
2023-02-12T04:16:29.840Z,51.85
2023-02-12T04:18:56.948Z,53.58
2023-02-12T04:21:44.786Z,52.00
2023-02-12T04:24:46.522Z,51.72
2023-02-12T04:27:24.631Z,55.13
2023-02-12T04:29:53.755Z,54.55
2023-02-12T04:32:45.228Z,59.35
2023-02-12T04:35:19.099Z,57.53
2023-02-12T04:37:50.946Z,59.45
2023-02-12T04:40:24.177Z,57.53
2023-02-12T04:42:53.289Z,56.35
2023-02-12T04:45:27.121Z,51.50
2023-02-12T04:47:53.809Z,54.10
2023-02-12T04:50:20.600Z,55.15
2023-02-12T04:52:47.289Z,59.58
2023-02-12T04:55:15.151Z,57.75
2023-02-12T04:57:41.743Z,59.10
2023-02-12T05:00:13.601Z,56.40
2023-02-12T05:02:40.485Z,56.35
2023-02-12T05:05:07.338Z,55.50
2023-02-12T05:07:33.935Z,52.78
2023-02-12T05:10:03.595Z,55.90
2023-02-12T05:12:30.157Z,54.63
2023-02-12T05:14:57.584Z,53.53
2023-02-12T05:17:25.059Z,55.28
2023-02-12T05:19:52.407Z,54.20
2023-02-12T05:22:18.971Z,52.75
2023-02-12T05:24:45.635Z,53.65
2023-02-12T05:27:12.532Z,54.58
2023-02-12T05:29:39.161Z,54.58
2023-02-12T05:32:07.014Z,55.83
2023-02-12T05:34:34.368Z,52.15
2023-02-12T05:37:01.370Z,51.72
2023-02-12T05:39:28.192Z,51.88
2023-02-12T05:41:54.769Z,48.35
2023-02-12T05:44:21.323Z,48.35
2023-02-12T05:46:47.947Z,49.38
2023-02-12T05:49:14.527Z,49.97
2023-02-12T05:51:41.149Z,47.67
2023-02-12T05:54:10.405Z,51.88
2023-02-12T05:56:42.422Z,51.25
2023-02-12T05:59:15.496Z,54.30
2023-02-12T06:01:46.356Z,52.95
2023-02-12T06:04:23.735Z,49.83
2023-02-12T06:06:55.748Z,56.10
2023-02-12T06:09:23.361Z,54.50
2023-02-12T06:11:50.094Z,52.13
2023-02-12T06:14:19.884Z,54.97
2023-02-12T06:16:51.399Z,50.33
2023-02-12T06:19:19.831Z,55.08
2023-02-12T06:21:46.769Z,56.33
2023-02-12T06:24:15.061Z,55.28
2023-02-12T06:26:41.812Z,51.40
2023-02-12T06:29:11.440Z,50.45
2023-02-12T06:31:38.479Z,53.15
2023-02-12T06:34:08.161Z,57.30
2023-02-12T06:36:37.414Z,53.88
2023-02-12T06:39:04.422Z,56.78
2023-02-12T06:41:31.077Z,64.85
2023-02-12T06:43:57.677Z,58.42
2023-02-12T06:46:24.374Z,59.20
2023-02-12T06:48:55.764Z,83.13
2023-02-12T06:51:23.602Z,176.23
2023-02-12T06:53:51.359Z,78.97
2023-02-12T06:56:19.226Z,112.88
2023-02-12T06:58:47.774Z,59.67
2023-02-12T07:01:18.150Z,128.32
2023-02-12T07:03:50.945Z,70.40
2023-02-12T07:06:18.280Z,61.43
2023-02-12T07:08:45.102Z,51.70
2023-02-12T07:11:12.107Z,57.55
2023-02-12T07:13:41.254Z,61.42
2023-02-12T07:16:10.752Z,58.78
2023-02-12T07:18:38.678Z,55.65
2023-02-12T07:21:07.158Z,51.25
2023-02-12T07:23:34.780Z,56.60
2023-02-12T07:26:03.524Z,51.92
2023-02-12T07:28:33.666Z,57.50
2023-02-12T07:31:07.788Z,57.75
2023-02-12T07:33:34.786Z,57.65
2023-02-12T07:36:02.224Z,58.90
2023-02-12T07:38:29.414Z,63.72
2023-02-12T07:40:58.853Z,57.17
2023-02-12T07:43:25.441Z,59.15
2023-02-12T07:45:52.063Z,60.60
2023-02-12T07:48:18.629Z,63.28
2023-02-12T07:50:47.678Z,59.83
2023-02-12T07:53:14.217Z,60.92
2023-02-12T07:55:43.236Z,61.72
2023-02-12T07:58:09.835Z,59.08
2023-02-12T08:00:36.444Z,62.65
2023-02-12T08:03:03.005Z,58.05
2023-02-12T08:05:29.751Z,58.22
2023-02-12T08:07:56.297Z,59.85
2023-02-12T08:10:23.686Z,65.00
2023-02-12T08:12:50.298Z,56.53
2023-02-12T08:15:17.084Z,61.38
2023-02-12T08:17:43.641Z,60.78
2023-02-12T08:20:10.527Z,59.10
2023-02-12T08:22:37.076Z,58.60
2023-02-12T08:25:03.653Z,60.97
2023-02-12T08:27:30.287Z,57.83
2023-02-12T08:29:56.871Z,70.32
2023-02-12T08:32:23.438Z,64.38
2023-02-12T08:34:50.024Z,70.18
2023-02-12T08:37:16.581Z,63.03
2023-02-12T08:39:43.269Z,59.15
2023-02-12T08:42:09.843Z,76.18
2023-02-12T08:44:37.136Z,60.15
2023-02-12T08:47:04.023Z,63.53
2023-02-12T08:49:32.769Z,60.33
2023-02-12T08:52:01.874Z,58.47
2023-02-12T08:54:30.586Z,56.75
2023-02-12T08:57:01.262Z,59.58
2023-02-12T08:59:28.287Z,60.42
2023-02-12T09:01:55.552Z,60.13
2023-02-12T09:04:27.303Z,55.08
2023-02-12T09:06:54.477Z,53.40
2023-02-12T09:09:21.248Z,55.38
2023-02-12T09:11:48.290Z,54.08
2023-02-12T09:14:18.742Z,56.85
2023-02-12T09:16:46.437Z,61.00
2023-02-12T09:19:14.522Z,58.83
2023-02-12T09:21:43.669Z,58.75
2023-02-12T09:24:10.764Z,57.03
2023-02-12T09:26:39.387Z,59.63
2023-02-12T09:29:06.396Z,57.22
2023-02-12T09:31:33.789Z,57.85
2023-02-12T09:34:06.453Z,57.78
2023-02-12T09:36:33.691Z,59.20
2023-02-12T09:39:00.532Z,54.25
2023-02-12T09:41:39.413Z,53.90
2023-02-12T09:44:42.343Z,57.17
2023-02-12T09:47:19.875Z,55.47
2023-02-12T09:49:54.775Z,55.90
2023-02-12T09:52:26.712Z,59.88
2023-02-12T09:54:54.104Z,57.08
2023-02-12T09:57:33.565Z,55.78
2023-02-12T10:00:06.784Z,58.30
2023-02-12T10:02:36.875Z,51.92
2023-02-12T10:05:04.718Z,54.70
2023-02-12T10:07:43.516Z,51.53
2023-02-12T10:10:17.831Z,51.03
2023-02-12T10:12:56.727Z,51.00
2023-02-12T10:15:34.473Z,47.72
2023-02-12T10:18:30.484Z,50.80
2023-02-12T10:21:11.835Z,54.45
2023-02-12T10:24:01.764Z,51.00
2023-02-12T10:26:55.710Z,54.38
2023-02-12T10:29:25.563Z,51.75
2023-02-12T10:32:00.722Z,50.35
2023-02-12T10:34:34.045Z,51.97
2023-02-12T10:37:25.819Z,50.25
2023-02-12T10:39:58.912Z,48.03
2023-02-12T10:42:47.585Z,46.08
2023-02-12T10:45:16.952Z,42.92
2023-02-12T10:47:46.286Z,46.70
2023-02-12T10:50:52.705Z,46.97
2023-02-12T10:53:29.053Z,41.80
2023-02-12T10:56:14.205Z,43.67
2023-02-12T10:58:50.756Z,41.90
2023-02-12T11:01:22.272Z,42.50
2023-02-12T11:03:49.163Z,39.30
2023-02-12T11:06:19.868Z,75.38
2023-02-12T11:08:48.107Z,50.08
2023-02-12T11:11:23.066Z,69.65
2023-02-12T11:14:04.924Z,50.10
2023-02-12T11:16:37.828Z,52.13
2023-02-12T11:19:07.331Z,55.67
2023-02-12T11:21:37.268Z,41.85
2023-02-12T11:24:30.734Z,41.85
2023-02-12T11:27:15.573Z,41.70
2023-02-12T11:29:43.622Z,39.85
2023-02-12T11:32:17.933Z,42.00
2023-02-12T11:34:44.558Z,40.92
2023-02-12T11:37:20.303Z,44.00
2023-02-12T11:39:49.421Z,42.33
2023-02-12T11:42:17.716Z,43.38
2023-02-12T11:44:57.018Z,42.63
2023-02-12T11:47:35.493Z,41.35
2023-02-12T11:50:08.170Z,41.65
2023-02-12T11:52:40.411Z,42.13
2023-02-12T11:55:27.949Z,41.95
2023-02-12T11:58:12.787Z,40.65
2023-02-12T12:00:50.381Z,37.17
2023-02-12T12:03:20.934Z,38.25
2023-02-12T12:05:52.604Z,37.97
2023-02-12T12:08:26.020Z,40.00
2023-02-12T12:11:19.077Z,40.58
2023-02-12T12:13:57.348Z,44.08
2023-02-12T12:16:54.965Z,47.42
2023-02-12T12:19:57.036Z,53.05
2023-02-12T12:23:00.898Z,55.92
2023-02-12T12:26:04.685Z,46.77
2023-02-12T12:28:51.119Z,47.10
2023-02-12T12:31:25.576Z,47.90
2023-02-12T12:34:17.460Z,43.97
2023-02-12T12:36:55.558Z,42.70
2023-02-12T12:39:25.053Z,47.50
2023-02-12T12:42:06.841Z,55.42
2023-02-12T12:44:47.155Z,51.80
2023-02-12T12:47:19.523Z,40.17
2023-02-12T12:50:12.217Z,45.67
2023-02-12T12:52:54.436Z,38.00
2023-02-12T12:55:24.184Z,39.63
2023-02-12T12:58:15.527Z,40.67
2023-02-12T13:00:55.825Z,36.38
2023-02-12T13:03:32.098Z,38.42
2023-02-12T13:06:22.428Z,34.90
2023-02-12T13:09:27.418Z,38.83
2023-02-12T13:12:20.086Z,38.05
2023-02-12T13:14:57.903Z,37.47
2023-02-12T13:17:46.062Z,38.17
2023-02-12T13:20:15.478Z,45.20
2023-02-12T13:23:09.280Z,40.22
2023-02-12T13:26:11.105Z,37.47
2023-02-12T13:28:52.099Z,40.03
2023-02-12T13:31:32.895Z,42.10
2023-02-12T13:34:07.162Z,42.03
2023-02-12T13:36:39.060Z,43.75
2023-02-12T13:39:34.245Z,42.75
2023-02-12T13:42:21.974Z,51.63
2023-02-12T13:45:07.182Z,49.30
2023-02-12T13:47:39.651Z,38.75
2023-02-12T13:50:34.387Z,42.55
2023-02-12T13:53:23.044Z,39.90
2023-02-12T13:56:01.700Z,46.03
2023-02-12T13:58:34.860Z,38.30
2023-02-12T14:01:08.710Z,45.45
2023-02-12T14:03:36.994Z,50.17
2023-02-12T14:06:16.976Z,37.38
2023-02-12T14:09:10.836Z,107.82
2023-02-12T14:11:50.382Z,58.33
2023-02-12T14:14:28.221Z,44.55
2023-02-12T14:16:57.400Z,56.92
2023-02-12T14:19:40.145Z,55.75
2023-02-12T14:22:33.777Z,44.80
2023-02-12T14:25:25.776Z,46.25
2023-02-12T14:27:54.371Z,48.42
2023-02-12T14:30:31.731Z,56.28
2023-02-12T14:33:08.782Z,57.22
2023-02-12T14:35:41.552Z,55.47
2023-02-12T14:38:17.919Z,51.92
2023-02-12T14:40:47.097Z,44.85
2023-02-12T14:43:55.046Z,49.28
2023-02-12T14:46:24.605Z,49.28
2023-02-12T14:49:04.987Z,46.78
2023-02-12T14:51:53.327Z,42.78
2023-02-12T14:54:41.958Z,43.97
2023-02-12T14:57:35.005Z,47.75
2023-02-12T15:00:39.046Z,40.75
2023-02-12T15:03:15.099Z,41.97
2023-02-12T15:06:18.891Z,41.17
2023-02-12T15:09:01.225Z,45.00
2023-02-12T15:11:33.814Z,41.47
2023-02-12T15:14:02.048Z,40.55
2023-02-12T15:16:33.956Z,38.47
2023-02-12T15:19:10.189Z,37.38
2023-02-12T15:21:38.299Z,37.25
2023-02-12T15:24:08.033Z,43.95
2023-02-12T15:26:41.452Z,41.42
2023-02-12T15:29:25.202Z,39.00
2023-02-12T15:32:06.823Z,39.13
2023-02-12T15:34:41.868Z,40.30
2023-02-12T15:37:19.470Z,40.15
2023-02-12T15:39:48.024Z,77.65
2023-02-12T15:42:28.794Z,48.03
2023-02-12T15:45:10.575Z,39.28
2023-02-12T15:47:37.169Z,39.50
2023-02-12T15:50:03.923Z,40.63
2023-02-12T15:52:38.815Z,35.35
2023-02-12T15:55:06.304Z,36.95
2023-02-12T15:57:33.473Z,35.72
2023-02-12T16:00:09.363Z,36.65
2023-02-12T16:02:35.925Z,33.10
2023-02-12T16:05:04.504Z,38.58
2023-02-12T16:07:36.182Z,38.47
2023-02-12T16:10:04.484Z,38.50
2023-02-12T16:12:37.606Z,39.75
2023-02-12T16:15:05.384Z,34.63
2023-02-12T16:17:34.208Z,35.97
2023-02-12T16:20:04.355Z,33.95
2023-02-12T16:22:40.233Z,34.78
2023-02-12T16:25:17.712Z,34.95
2023-02-12T16:28:17.868Z,33.78
2023-02-12T16:30:48.231Z,34.20
2023-02-12T16:33:35.160Z,40.13
2023-02-12T16:36:06.220Z,36.63
2023-02-12T16:38:47.485Z,40.30
2023-02-12T16:41:20.419Z,39.90
2023-02-12T16:43:52.288Z,41.03
2023-02-12T16:46:20.558Z,36.70
2023-02-12T16:48:52.490Z,33.33
2023-02-12T16:51:27.431Z,36.95
2023-02-12T16:53:57.434Z,37.55
2023-02-12T16:56:26.289Z,35.45
2023-02-12T16:58:56.281Z,36.05
2023-02-12T17:01:35.301Z,39.95
2023-02-12T17:04:06.679Z,36.85
2023-02-12T17:06:35.742Z,38.83
2023-02-12T17:09:02.375Z,36.13
2023-02-12T17:11:31.381Z,38.15
2023-02-12T17:13:57.919Z,38.83
2023-02-12T17:16:30.688Z,41.55
2023-02-12T17:18:58.606Z,37.20
2023-02-12T17:21:31.863Z,42.35
2023-02-12T17:23:58.747Z,36.13
2023-02-12T17:26:25.797Z,37.20
2023-02-12T17:28:52.298Z,41.22
2023-02-12T17:31:20.688Z,47.40
2023-02-12T17:33:47.320Z,44.28
2023-02-12T17:36:16.070Z,46.10
2023-02-12T17:38:42.568Z,38.67
2023-02-12T17:41:11.871Z,40.05
2023-02-12T17:43:41.033Z,38.80
2023-02-12T17:46:18.921Z,41.67
2023-02-12T17:48:45.744Z,42.65
2023-02-12T17:51:14.754Z,41.22
2023-02-12T17:53:41.326Z,39.30
2023-02-12T17:56:14.785Z,40.08
2023-02-12T17:58:42.392Z,40.53
2023-02-12T18:01:11.630Z,38.47
2023-02-12T18:03:38.980Z,41.80
2023-02-12T18:06:06.917Z,44.38
2023-02-12T18:08:33.830Z,42.92
2023-02-12T18:11:06.032Z,43.78
2023-02-12T18:13:34.857Z,44.92
2023-02-12T18:16:01.842Z,47.83
2023-02-12T18:18:28.347Z,44.35
2023-02-12T18:20:55.337Z,43.83
2023-02-12T18:23:22.056Z,46.45
2023-02-12T18:25:48.618Z,48.35
2023-02-12T18:28:15.153Z,42.83
2023-02-12T18:30:43.247Z,49.90
2023-02-12T18:33:12.394Z,47.67
2023-02-12T18:35:41.674Z,47.00
2023-02-12T18:38:08.212Z,48.88
2023-02-12T18:40:34.710Z,43.25
2023-02-12T18:43:01.279Z,48.83
2023-02-12T18:45:27.820Z,45.60
2023-02-12T18:47:54.507Z,47.90
2023-02-12T18:50:21.313Z,45.80
2023-02-12T18:52:47.775Z,47.65
2023-02-12T18:55:14.278Z,52.92
2023-02-12T18:57:40.749Z,51.85
2023-02-12T19:00:08.065Z,54.90
2023-02-12T19:02:34.649Z,51.95
2023-02-12T19:05:01.203Z,49.20
2023-02-12T19:07:27.777Z,52.00
2023-02-12T19:09:54.360Z,53.70
2023-02-12T19:12:20.921Z,55.88
2023-02-12T19:14:47.436Z,55.60
2023-02-12T19:17:14.033Z,56.90
2023-02-12T19:19:40.643Z,58.03
2023-02-12T19:22:07.332Z,55.40
2023-02-12T19:24:46.002Z,63.72
2023-02-12T19:27:13.637Z,60.17
2023-02-12T19:29:40.232Z,55.53
2023-02-12T19:32:06.918Z,57.08
2023-02-12T19:34:33.505Z,53.75
2023-02-12T19:37:00.195Z,58.28
2023-02-12T19:39:27.484Z,54.63
2023-02-12T19:41:56.141Z,73.32
2023-02-12T19:44:25.563Z,62.00
2023-02-12T19:46:52.976Z,58.15
2023-02-12T19:49:23.169Z,53.92
2023-02-12T19:51:50.230Z,55.53
2023-02-12T19:54:18.624Z,60.35
2023-02-12T19:56:45.716Z,79.88
2023-02-12T19:59:17.363Z,64.35
2023-02-12T20:01:44.945Z,60.85
2023-02-12T20:04:17.732Z,58.70
2023-02-12T20:06:49.052Z,62.67
2023-02-12T20:09:15.607Z,67.20
2023-02-12T20:11:42.198Z,54.80
2023-02-12T20:14:12.132Z,66.95
2023-02-12T20:16:41.631Z,64.00
2023-02-12T20:19:12.827Z,60.20
2023-02-12T20:21:42.421Z,65.38
2023-02-12T20:24:08.969Z,56.60
2023-02-12T20:26:38.237Z,62.60
2023-02-12T20:29:05.527Z,59.65
2023-02-12T20:31:37.937Z,62.70
2023-02-12T20:34:11.670Z,58.80
2023-02-12T20:39:08.287Z,55.70
2023-02-12T20:41:38.164Z,51.53
2023-02-12T20:44:06.620Z,49.60
2023-02-12T20:46:36.104Z,64.55
2023-02-12T20:49:02.923Z,58.47
2023-02-12T20:51:31.703Z,48.25
2023-02-12T20:54:01.306Z,47.00
2023-02-12T20:56:33.074Z,49.53
2023-02-12T20:59:00.894Z,48.35
2023-02-12T21:01:32.776Z,69.40
2023-02-12T21:04:03.579Z,86.93
2023-02-12T21:06:30.310Z,41.83
2023-02-12T21:08:56.845Z,47.80
2023-02-12T21:11:25.180Z,40.60
2023-02-12T21:14:02.570Z,49.80
2023-02-12T21:16:38.594Z,45.25
2023-02-12T21:19:05.189Z,41.10
2023-02-12T21:21:33.664Z,45.83
2023-02-12T21:24:01.701Z,41.92
2023-02-12T21:26:32.733Z,39.53
2023-02-12T21:29:00.809Z,42.85
2023-02-12T21:31:32.184Z,53.08
2023-02-12T21:34:00.415Z,41.28
2023-02-12T21:36:38.748Z,41.10
2023-02-12T21:39:07.973Z,43.55
2023-02-12T21:41:37.318Z,42.25
2023-02-12T21:44:23.770Z,46.85
2023-02-12T21:46:52.728Z,40.67
2023-02-12T21:49:27.465Z,42.78
2023-02-12T21:52:03.234Z,36.28
2023-02-12T21:54:30.652Z,32.78
2023-02-12T21:56:58.542Z,45.83
2023-02-12T21:59:26.423Z,31.33
2023-02-12T22:01:58.321Z,28.27
2023-02-12T22:04:25.358Z,29.02
2023-02-12T22:06:52.848Z,30.88
2023-02-12T22:09:21.302Z,33.15
2023-02-12T22:11:47.872Z,30.52
2023-02-12T22:14:16.993Z,31.25
2023-02-12T22:16:44.346Z,32.83
2023-02-12T22:19:10.938Z,34.95
2023-02-12T22:21:40.150Z,26.75
2023-02-12T22:24:09.020Z,44.88
2023-02-12T22:26:35.510Z,27.10
2023-02-12T22:29:07.952Z,35.80
2023-02-12T22:31:37.100Z,27.75
2023-02-12T22:34:07.424Z,25.33
2023-02-12T22:36:35.602Z,25.75
2023-02-12T22:39:03.115Z,25.17
2023-02-12T22:41:30.157Z,27.25
2023-02-12T22:44:00.356Z,24.48
2023-02-12T22:46:29.773Z,27.95
2023-02-12T22:48:56.390Z,27.27
2023-02-12T22:51:25.955Z,22.60
2023-02-12T22:53:52.992Z,32.55
2023-02-12T22:56:19.662Z,26.55
2023-02-12T22:58:46.792Z,23.58
2023-02-12T23:01:18.444Z,35.25
2023-02-12T23:03:45.765Z,24.63
2023-02-12T23:06:15.122Z,28.58
2023-02-12T23:08:42.045Z,21.35
2023-02-12T23:11:08.957Z,27.67
2023-02-12T23:13:39.309Z,36.15
2023-02-12T23:16:05.844Z,32.65
2023-02-12T23:18:32.740Z,31.38
2023-02-12T23:20:59.740Z,24.30
2023-02-12T23:23:27.075Z,22.50
2023-02-12T23:25:54.675Z,26.75
2023-02-12T23:28:21.980Z,23.42
2023-02-12T23:30:49.876Z,27.48
2023-02-12T23:33:16.957Z,30.63
2023-02-12T23:35:46.821Z,33.42
2023-02-12T23:38:13.345Z,23.55
2023-02-12T23:40:40.641Z,32.78
2023-02-12T23:43:07.447Z,33.08
2023-02-12T23:45:36.192Z,31.70
2023-02-12T23:48:02.642Z,26.98
2023-02-12T23:50:29.257Z,26.35
2023-02-12T23:52:55.711Z,28.83
2023-02-12T23:55:22.245Z,24.63
2023-02-12T23:57:49.702Z,29.23
